LFBY/XDA METAR and TAF weather

Enter ICAO airport designator
Station Type Date Time Source
LFBY METAR 2021/09/16 22:00 UTC NOAA

LFBY 162200Z AUTO 17002KT 9000 // ////// 15/14 Q1020


Station Type Date Time Source
LFBY Decoded METAR 2021/09/16 22:00 UTC NOAA

Dax, France (LFBY) 43-41N 001-04W 32M
Sep 16, 2021 - 06:00 PM EDT / 2021.09.16 2200 UTC
Wind: from the S (170 degrees) at 2 MPH (2 KT):0
Visibility: 5 mile(s):0
Temperature: 59 F (15 C)
Dew Point: 57 F (14 C)
Relative Humidity: 93%
Pressure (altimeter): 30.12 in. Hg (1020 hPa)
ob: LFBY 162200Z AUTO 17002KT 9000 // ////// 15/14 Q1020
cycle: 22

Station Type Date Time Source
LFBY TAF UTC NOAA

Error!

Example: see airport list